Wetterdaten: Woche 17.07.23 - 23.07.23 (KW29)
Datum Zeit Temp. A. Feuchte A. Luftdruck Regen Wind Richtung Taupunkt Windchill
17.07.2023 00:00 17,5 C 57 % 1022 hPa 0,0 l/m 0,0 km/h (0 Bft) SO 8,9 C 17,5 C
17.07.2023 01:00 17,3 C 59 % 1022 hPa 0,0 l/m 0,0 km/h (0 Bft) SO 9,1 C 17,3 C
17.07.2023 02:00 17,1 C 61 % 1022 hPa 0,0 l/m 0,0 km/h (0 Bft) SO 9,5 C 17,1 C
17.07.2023 03:00 17,1 C 62 % 1022 hPa 0,0 l/m 0,0 km/h (0 Bft) SO 9,6 C 17,1 C
17.07.2023 04:00 16,9 C 63 % 1022 hPa 0,0 l/m 0,0 km/h (0 Bft) SO 9,8 C 16,9 C
17.07.2023 05:00 16,4 C 64 % 1022 hPa 0,0 l/m 0,0 km/h (0 Bft) SO 9,5 C 16,4 C
17.07.2023 06:00 15,9 C 66 % 1023 hPa 0,0 l/m 0,0 km/h (0 Bft) SO 9,5 C 15,9 C
17.07.2023 07:00 16,9 C 67 % 1023 hPa 0,0 l/m 0,0 km/h (0 Bft) SO 10,6 C 16,9 C
17.07.2023 08:00 19,3 C 62 % 1023 hPa 0,0 l/m 0,0 km/h (0 Bft) S-SO 11,9 C 19,3 C
17.07.2023 09:00 22,0 C 55 % 1024 hPa 0,0 l/m 0,0 km/h (0 Bft) SW 12,5 C 22,0 C
17.07.2023 10:00 23,7 C 47 % 1023 hPa 0,0 l/m 0,0 km/h (0 Bft) SW 11,6 C 23,7 C
17.07.2023 11:00 24,7 C 41 % 1023 hPa 0,0 l/m 4,0 km/h (1 Bft) SW 10,7 C 24,3 C
17.07.2023 12:00 26,8 C 37 % 1023 hPa 0,0 l/m 1,7 km/h (1 Bft) S-SW 10,7 C 26,7 C
17.07.2023 13:00 27,4 C 35 % 1023 hPa 0,0 l/m 0,0 km/h (0 Bft) W-NW 10,5 C 27,4 C
17.07.2023 14:00 27,1 C 36 % 1023 hPa 0,0 l/m 0,0 km/h (0 Bft) W-NW 10,7 C 27,1 C
17.07.2023 15:00 26,9 C 36 % 1022 hPa 0,0 l/m 0,0 km/h (0 Bft) W-SW 10,6 C 26,9 C
17.07.2023 16:00 26,8 C 37 % 1022 hPa 0,0 l/m 0,0 km/h (0 Bft) W-SW 10,8 C 26,8 C
17.07.2023 17:00 26,9 C 36 % 1022 hPa 0,0 l/m 5,8 km/h (2 Bft) NW 10,5 C 26,4 C
17.07.2023 18:00 25,6 C 38 % 1022 hPa 0,0 l/m 1,7 km/h (1 Bft) W-NW 10,1 C 25,5 C
17.07.2023 19:00 25,0 C 39 % 1022 hPa 0,0 l/m 0,0 km/h (0 Bft) NW 9,8 C 25,0 C
17.07.2023 20:00 23,5 C 40 % 1022 hPa 0,0 l/m 1,6 km/h (1 Bft) W-NW 9,0 C 23,3 C
17.07.2023 21:00 21,8 C 42 % 1023 hPa 0,0 l/m 0,0 km/h (0 Bft) N-NW 8,3 C 21,8 C
17.07.2023 22:00 20,4 C 47 % 1025 hPa 0,0 l/m 1,4 km/h (1 Bft) NW 8,6 C 20,4 C
17.07.2023 23:00 17,5 C 56 % 1026 hPa 0,0 l/m 0,7 km/h (0 Bft) W 8,6 C 17,5 C
18.07.2023 00:00 16,3 C 58 % 1027 hPa 0,0 l/m 0,0 km/h (0 Bft) W 8,0 C 16,3 C
18.07.2023 01:00 14,3 C 64 % 1027 hPa 0,0 l/m 0,0 km/h (0 Bft) W 7,6 C 14,3 C
18.07.2023 02:00 13,5 C 67 % 1027 hPa 0,0 l/m 0,0 km/h (0 Bft) W 7,5 C 13,5 C
18.07.2023 03:00 12,6 C 69 % 1027 hPa 0,0 l/m 0,0 km/h (0 Bft) W 7,1 C 12,6 C
18.07.2023 04:00 11,9 C 72 % 1027 hPa 0,0 l/m 0,0 km/h (0 Bft) W 7,0 C 11,9 C
18.07.2023 05:00 11,4 C 73 % 1027 hPa 0,0 l/m 0,0 km/h (0 Bft) W 6,8 C 11,4 C
18.07.2023 06:00 11,3 C 76 % 1027 hPa 0,0 l/m 0,0 km/h (0 Bft) W 7,2 C 11,3 C
18.07.2023 07:00 12,5 C 77 % 1027 hPa 0,0 l/m 0,0 km/h (0 Bft) W 8,5 C 12,5 C
18.07.2023 08:00 14,7 C 74 % 1027 hPa 0,0 l/m 0,0 km/h (0 Bft) W 10,2 C 14,7 C
18.07.2023 09:00 17,3 C 67 % 1027 hPa 0,0 l/m 0,0 km/h (0 Bft) S-SO 11,0 C 17,3 C
18.07.2023 10:00 19,3 C 60 % 1026 hPa 0,0 l/m 0,0 km/h (0 Bft) S-SO 11,3 C 19,3 C
18.07.2023 11:00 21,7 C 52 % 1025 hPa 0,0 l/m 0,0 km/h (0 Bft) N-NO 11,4 C 21,7 C
18.07.2023 12:00 23,8 C 44 % 1024 hPa 0,0 l/m 0,0 km/h (0 Bft) SO 10,9 C 23,8 C
18.07.2023 13:00 25,6 C 40 % 1024 hPa 0,0 l/m 0,0 km/h (0 Bft) SW 10,9 C 25,6 C
18.07.2023 14:00 26,5 C 37 % 1024 hPa 0,0 l/m 0,0 km/h (0 Bft) N-NW 10,5 C 26,5 C
18.07.2023 15:00 26,8 C 36 % 1022 hPa 0,0 l/m 1,2 km/h (1 Bft) N 10,6 C 26,8 C
18.07.2023 16:00 28,3 C 34 % 1022 hPa 0,0 l/m 0,2 km/h (0 Bft) N-NO 11,0 C 28,3 C
18.07.2023 17:00 27,8 C 33 % 1021 hPa 0,0 l/m 2,7 km/h (1 Bft) N 10,0 C 27,6 C
18.07.2023 18:00 25,9 C 35 % 1021 hPa 0,0 l/m 0,0 km/h (0 Bft) N-NO 9,2 C 25,9 C
18.07.2023 19:00 24,9 C 37 % 1020 hPa 0,0 l/m 2,2 km/h (1 Bft) N 9,0 C 24,8 C
18.07.2023 20:00 23,6 C 39 % 1020 hPa 0,0 l/m 0,0 km/h (0 Bft) N-NO 8,7 C 23,6 C
18.07.2023 21:00 21,5 C 41 % 1020 hPa 0,0 l/m 2,6 km/h (1 Bft) N-NO 7,8 C 21,3 C
18.07.2023 22:00 19,8 C 45 % 1020 hPa 0,0 l/m 0,0 km/h (0 Bft) NO 7,5 C 19,8 C
18.07.2023 23:00 17,8 C 49 % 1020 hPa 0,0 l/m 0,0 km/h (0 Bft) O-SO 6,9 C 17,8 C
19.07.2023 00:00 16,3 C 52 % 1020 hPa 0,0 l/m 0,0 km/h (0 Bft) O-SO 6,3 C 16,3 C
19.07.2023 01:00 15,3 C 55 % 1020 hPa 0,0 l/m 0,0 km/h (0 Bft) O-SO 6,2 C 15,3 C
19.07.2023 02:00 14,5 C 56 % 1019 hPa 0,0 l/m 0,0 km/h (0 Bft) O-SO 5,9 C 14,5 C
19.07.2023 03:00 13,7 C 59 % 1018 hPa 0,0 l/m 0,0 km/h (0 Bft) O-SO 5,9 C 13,7 C
19.07.2023 04:00 13,3 C 62 % 1018 hPa 0,0 l/m 0,0 km/h (0 Bft) O-SO 6,1 C 13,3 C
19.07.2023 05:00 12,9 C 64 % 1018 hPa 0,0 l/m 0,0 km/h (0 Bft) O-SO 6,2 C 12,9 C
19.07.2023 06:00 13,0 C 66 % 1018 hPa 0,0 l/m 0,0 km/h (0 Bft) O-SO 6,8 C 13,0 C
19.07.2023 07:00 14,4 C 66 % 1018 hPa 0,0 l/m 0,0 km/h (0 Bft) SO 8,1 C 14,4 C
19.07.2023 08:00 17,0 C 63 % 1018 hPa 0,0 l/m 0,0 km/h (0 Bft) S-SO 9,8 C 17,0 C
19.07.2023 09:00 20,3 C 57 % 1018 hPa 0,0 l/m 0,0 km/h (0 Bft) S-SO 11,5 C 20,3 C
19.07.2023 10:00 23,7 C 48 % 1018 hPa 0,0 l/m 0,7 km/h (0 Bft) N-NW 12,1 C 23,7 C
19.07.2023 11:00 25,8 C 42 % 1017 hPa 0,0 l/m 0,0 km/h (0 Bft) W-SW 11,7 C 25,8 C
19.07.2023 12:00 27,0 C 39 % 1017 hPa 0,0 l/m 0,1 km/h (0 Bft) NW 11,9 C 27,0 C
19.07.2023 13:00 27,9 C 37 % 1017 hPa 0,0 l/m 0,0 km/h (0 Bft) W 11,6 C 27,9 C
19.07.2023 14:00 27,5 C 38 % 1016 hPa 0,0 l/m 2,1 km/h (1 Bft) N 11,8 C 27,4 C
19.07.2023 15:00 26,6 C 40 % 1016 hPa 0,0 l/m 1,6 km/h (1 Bft) N 11,9 C 26,5 C
19.07.2023 16:00 23,8 C 46 % 1017 hPa 0,0 l/m 5,5 km/h (1 Bft) N-NW 11,5 C 23,1 C
19.07.2023 17:00 21,8 C 53 % 1017 hPa 0,0 l/m 0,0 km/h (0 Bft) NW 11,8 C 21,8 C
19.07.2023 18:00 20,0 C 61 % 1016 hPa 0,0 l/m 0,0 km/h (0 Bft) N-NW 12,1 C 20,0 C
19.07.2023 19:00 18,4 C 68 % 1017 hPa 0,5 l/m 0,0 km/h (0 Bft) NW 12,3 C 18,4 C
19.07.2023 20:00 16,2 C 77 % 1017 hPa 1,6 l/m 0,0 km/h (0 Bft) S-SO 12,2 C 16,2 C
19.07.2023 21:00 15,7 C 83 % 1017 hPa 0,0 l/m 0,0 km/h (0 Bft) SW 12,7 C 15,7 C
19.07.2023 22:00 15,4 C 84 % 1017 hPa 0,0 l/m 0,0 km/h (0 Bft) SW 12,7 C 15,4 C
19.07.2023 23:00 15,0 C 85 % 1017 hPa 0,0 l/m 0,0 km/h (0 Bft) SW 12,5 C 15,0 C
20.07.2023 00:00 14,6 C 86 % 1018 hPa 0,5 l/m 0,0 km/h (0 Bft) W-SW 12,3 C 14,6 C
20.07.2023 01:00 14,2 C 86 % 1018 hPa 0,0 l/m 0,0 km/h (0 Bft) W-SW 11,9 C 14,2 C
20.07.2023 02:00 13,4 C 86 % 1018 hPa 0,0 l/m 0,0 km/h (0 Bft) W-SW 11,1 C 13,4 C
20.07.2023 03:00 12,8 C 86 % 1018 hPa 0,0 l/m 0,0 km/h (0 Bft) W-SW 10,5 C 12,8 C
21.07.2023 03:00 11,7 C 79 % 1017 hPa 1,6 l/m 0,0 km/h (0 Bft) W 8,2 C 11,7 C
21.07.2023 04:00 11,7 C 80 % 1017 hPa 0,0 l/m 0,0 km/h (0 Bft) W 8,3 C 11,7 C
21.07.2023 05:00 11,3 C 81 % 1017 hPa 0,0 l/m 0,0 km/h (0 Bft) W 8,1 C 11,3 C
21.07.2023 06:00 11,7 C 82 % 1016 hPa 0,0 l/m 0,0 km/h (0 Bft) W 8,7 C 11,7 C
21.07.2023 07:00 12,9 C 83 % 1016 hPa 0,0 l/m 0,0 km/h (0 Bft) W 10,0 C 12,9 C
21.07.2023 08:00 13,6 C 82 % 1016 hPa 0,0 l/m 0,0 km/h (0 Bft) W-NW 10,6 C 13,6 C
21.07.2023 09:00 14,4 C 83 % 1016 hPa 0,0 l/m 0,0 km/h (0 Bft) W-NW 11,5 C 14,4 C
21.07.2023 10:00 15,4 C 82 % 1016 hPa 0,0 l/m 0,0 km/h (0 Bft) W-SW 12,3 C 15,4 C
21.07.2023 11:00 15,5 C 82 % 1017 hPa 0,0 l/m 0,0 km/h (0 Bft) W-SW 12,4 C 15,5 C
21.07.2023 12:00 15,5 C 84 % 1017 hPa 0,5 l/m 0,0 km/h (0 Bft) W-SW 12,8 C 15,5 C
21.07.2023 13:00 16,3 C 85 % 1016 hPa 0,0 l/m 0,0 km/h (0 Bft) S-SW 13,7 C 16,3 C
21.07.2023 14:00 18,0 C 82 % 1016 hPa 0,0 l/m 0,0 km/h (0 Bft) S-SO 14,8 C 18,0 C
21.07.2023 15:00 19,6 C 75 % 1016 hPa 0,0 l/m 0,0 km/h (0 Bft) S-SO 15,1 C 19,6 C
21.07.2023 16:00 20,1 C 71 % 1016 hPa 0,0 l/m 0,0 km/h (0 Bft) O-SO 14,6 C 20,1 C
21.07.2023 17:00 19,6 C 69 % 1015 hPa 0,0 l/m 0,0 km/h (0 Bft) S-SW 13,8 C 19,6 C
21.07.2023 18:00 17,6 C 73 % 1016 hPa 0,5 l/m 0,5 km/h (0 Bft) NW 12,6 C 17,6 C
21.07.2023 19:00 14,8 C 82 % 1016 hPa 0,0 l/m 0,0 km/h (0 Bft) N-NO 11,6 C 14,8 C
21.07.2023 20:00 14,7 C 83 % 1016 hPa 0,0 l/m 0,0 km/h (0 Bft) N-NO 11,9 C 14,7 C
21.07.2023 21:00 14,4 C 85 % 1017 hPa 0,0 l/m 0,0 km/h (0 Bft) N 11,9 C 14,4 C
21.07.2023 22:00 13,8 C 86 % 1018 hPa 0,0 l/m 0,0 km/h (0 Bft) N 11,5 C 13,8 C
21.07.2023 23:00 13,1 C 87 % 1018 hPa 0,0 l/m 0,0 km/h (0 Bft) N 11,0 C 13,1 C
22.07.2023 00:00 12,4 C 87 % 1018 hPa 0,0 l/m 0,0 km/h (0 Bft) W 10,3 C 12,4 C
22.07.2023 01:00 12,0 C 87 % 1018 hPa 0,0 l/m 0,0 km/h (0 Bft) W 9,9 C 12,0 C
22.07.2023 02:00 11,6 C 88 % 1019 hPa 0,0 l/m 0,0 km/h (0 Bft) W 9,6 C 11,6 C
22.07.2023 03:00 11,7 C 88 % 1019 hPa 0,0 l/m 0,0 km/h (0 Bft) W 9,8 C 11,7 C
22.07.2023 04:00 11,9 C 89 % 1019 hPa 0,0 l/m 0,0 km/h (0 Bft) W 10,1 C 11,9 C
22.07.2023 05:00 11,6 C 89 % 1019 hPa 0,0 l/m 0,0 km/h (0 Bft) W 9,8 C 11,6 C
22.07.2023 06:00 11,6 C 89 % 1020 hPa 0,0 l/m 0,0 km/h (0 Bft) W 9,8 C 11,6 C
22.07.2023 07:00 12,4 C 89 % 1020 hPa 0,0 l/m 0,0 km/h (0 Bft) W 10,6 C 12,4 C
22.07.2023 08:00 14,2 C 88 % 1020 hPa 0,0 l/m 0,0 km/h (0 Bft) S 12,2 C 14,2 C
22.07.2023 09:00 16,1 C 79 % 1020 hPa 0,0 l/m 0,4 km/h (0 Bft) W-SW 12,3 C 16,1 C
22.07.2023 10:00 18,1 C 66 % 1021 hPa 0,0 l/m 0,0 km/h (0 Bft) W-SW 11,6 C 18,1 C
22.07.2023 11:00 20,5 C 59 % 1020 hPa 0,0 l/m 0,0 km/h (0 Bft) W-NW 12,1 C 20,5 C
22.07.2023 12:00 20,8 C 54 % 1020 hPa 0,0 l/m 0,0 km/h (0 Bft) W-NW 11,2 C 20,8 C
22.07.2023 13:00 22,1 C 51 % 1020 hPa 0,0 l/m 0,0 km/h (0 Bft) S-SW 11,6 C 22,1 C
22.07.2023 14:00 23,5 C 46 % 1020 hPa 0,0 l/m 0,6 km/h (0 Bft) S-SO 11,1 C 23,5 C
22.07.2023 15:00 24,1 C 45 % 1019 hPa 0,0 l/m 0,0 km/h (0 Bft) W-SW 11,3 C 24,1 C
22.07.2023 16:00 23,9 C 45 % 1019 hPa 0,0 l/m 0,0 km/h (0 Bft) SW 11,3 C 23,9 C
22.07.2023 17:00 23,7 C 45 % 1018 hPa 0,0 l/m 0,0 km/h (0 Bft) W-SW 11,1 C 23,7 C
22.07.2023 18:00 23,4 C 46 % 1018 hPa 0,0 l/m 0,0 km/h (0 Bft) S-SW 10,9 C 23,4 C
22.07.2023 19:00 22,4 C 48 % 1018 hPa 0,0 l/m 0,0 km/h (0 Bft) SW 10,6 C 22,4 C
22.07.2023 20:00 21,3 C 50 % 1018 hPa 0,0 l/m 0,0 km/h (0 Bft) W 10,5 C 21,3 C
22.07.2023 21:00 18,7 C 54 % 1018 hPa 0,0 l/m 0,0 km/h (0 Bft) W 9,2 C 18,7 C
22.07.2023 22:00 17,0 C 59 % 1018 hPa 0,0 l/m 0,0 km/h (0 Bft) W 8,8 C 17,0 C
22.07.2023 23:00 16,3 C 62 % 1018 hPa 0,0 l/m 0,0 km/h (0 Bft) W 9,0 C 16,3 C
23.07.2023 00:00 16,1 C 65 % 1018 hPa 0,0 l/m 0,0 km/h (0 Bft) W 9,5 C 16,1 C
23.07.2023 01:00 16,1 C 66 % 1018 hPa 0,0 l/m 0,0 km/h (0 Bft) SW 9,7 C 16,1 C
23.07.2023 02:00 15,9 C 67 % 1017 hPa 0,0 l/m 0,0 km/h (0 Bft) W-NW 9,7 C 15,9 C
23.07.2023 03:00 16,1 C 67 % 1017 hPa 0,0 l/m 0,0 km/h (0 Bft) SO 9,9 C 16,1 C
23.07.2023 04:00 16,5 C 66 % 1017 hPa 0,0 l/m 0,0 km/h (0 Bft) S-SO 10,2 C 16,5 C
23.07.2023 05:00 16,1 C 67 % 1017 hPa 0,0 l/m 0,0 km/h (0 Bft) S-SO 9,9 C 16,1 C
23.07.2023 06:00 15,8 C 68 % 1017 hPa 0,0 l/m 0,0 km/h (0 Bft) S-SO 9,9 C 15,8 C
23.07.2023 07:00 17,1 C 66 % 1016 hPa 0,0 l/m 0,0 km/h (0 Bft) S-SW 10,6 C 17,1 C
23.07.2023 08:00 18,4 C 64 % 1016 hPa 0,0 l/m 0,0 km/h (0 Bft) S-SO 11,5 C 18,4 C
23.07.2023 09:00 21,3 C 57 % 1016 hPa 0,0 l/m 1,0 km/h (0 Bft) SW 12,4 C 21,3 C
23.07.2023 10:00 23,9 C 49 % 1016 hPa 0,0 l/m 4,5 km/h (1 Bft) S-SO 12,4 C 23,6 C
23.07.2023 11:00 25,1 C 46 % 1016 hPa 0,0 l/m 2,5 km/h (1 Bft) S 12,6 C 24,9 C
23.07.2023 12:00 25,5 C 43 % 1015 hPa 0,0 l/m 4,5 km/h (1 Bft) SO 11,9 C 25,1 C
23.07.2023 13:00 25,8 C 42 % 1015 hPa 0,0 l/m 0,2 km/h (0 Bft) O-SO 12,0 C 25,8 C
23.07.2023 14:00 27,4 C 38 % 1014 hPa 0,0 l/m 4,3 km/h (1 Bft) S 11,9 C 27,2 C
23.07.2023 15:00 25,1 C 40 % 1015 hPa 0,0 l/m 1,4 km/h (1 Bft) W-SW 10,3 C 25,0 C
23.07.2023 16:00 24,0 C 44 % 1015 hPa 0,0 l/m 1,9 km/h (1 Bft) W-SW 10,9 C 23,8 C
23.07.2023 17:00 23,7 C 46 % 1015 hPa 0,0 l/m 0,0 km/h (0 Bft) W-SW 11,2 C 23,7 C
23.07.2023 18:00 23,6 C 47 % 1014 hPa 0,0 l/m 0,0 km/h (0 Bft) SW 11,6 C 23,6 C
23.07.2023 19:00 23,8 C 48 % 1014 hPa 0,0 l/m 0,0 km/h (0 Bft) SW 12,1 C 23,8 C
23.07.2023 20:00 23,8 C 48 % 1014 hPa 0,0 l/m 0,0 km/h (0 Bft) W-SW 12,0 C 23,8 C
23.07.2023 21:00 23,2 C 50 % 1014 hPa 0,0 l/m 0,1 km/h (0 Bft) W 12,0 C 23,2 C
23.07.2023 22:00 22,5 C 53 % 1014 hPa 0,0 l/m 0,0 km/h (0 Bft) W-SW 12,4 C 22,5 C
23.07.2023 23:00 21,2 C 57 % 1014 hPa 0,0 l/m 0,0 km/h (0 Bft) W 12,3 C 21,2 C
Min-Datum _ 18.07.23 18.07.23 23.07.23 - 23.07.23 - 19.07.23 18.07.23
_ Min-Zeit 06:12 17:02 23:02 - 23:02 - 03:02 06:12
Minimum _ 11,2 C 33 % 1014 hPa - 0,0 km/h (0 Bft) - 5,7 C 11,2 C
Max-Datum _ 17.07.23 22.07.23 18.07.23 21.07.23 17.07.23 - 21.07.23 17.07.23
_ Max-Zeit 14:02 08:02 09:02 03:12 17:32 - 14:52 14:02
Maximum _ 28,7 C 89 % 1027 hPa 1,6 l/m 21,6 km/h
NW (4 Bft)
- 15,4 C 28,7 C
Durchschnitt _ 18,9 C 61 % 1019 hPa #5,2 l/m 0,4 km/h (0 Bft) W 10,4 C 18,9 C